Aeroporto :
LOGIN :

Iscrizione | Disclaimer

   EN    FR    IT 

 










Sommario :    VFR   VFR Marginale   IFR   IFR Intensivo   IFR Molto Intensivo
Visibilità : 
Base nubi : 
>= 8 km
>= 3000ft
5 / 8 km
1000 / 3000 ft
1500m / 5 km
500 / 1000 ft
800 / 1500m
200 / 500 ft
< 800m
< 200 ft
Simboli :   Temporali  Nebbia  Neve Forte  Precipitazioni Forti  Vento > 20 kt
SIGMETs :   Varie  Temporali  Ghiacco  Turbolenza  Onda orograficha  Ceneri Vulcaniche






- Altitudine del aeroporto : 32 ft
- Codice IATA : LKZ


EGUL - RAF Lakenheath

ULTIMO METAR :
  • 181656Z AUTO 28004KT 9999 CLR 04/01 A3039 RMK AO2 SLP295 T00360005 RVRNO $

METARs OBSOLETI :
  • 181556Z AUTO 28005KT 9999 CLR 06/01 A3037 RMK AO2 SLP288 T00560011 RVRNO $
  • 181456Z AUTO 31006KT 9999 CLR 07/01 A3034 RMK AO2 SLP278 T00690008 52015 RVRNO $

TAF TAF EGUL
Valido dal 17 a 16 ore il 18 a 19 ore UTC


171603Z 1716/1819 24010G15KT 9999 SCT025 BKN050 QNH2980INS
TEMPO 1716/1717 8000 -SHRA BKN012 OVC020
BECMG 1721/1722 25012KT 9999 SCT030 QNH3000INS TX07/1813Z TN01/1803Z LAST NO AMDS AFT 1716 NEXT 2105



MetMap, La meteo Aeronautica in un colpo d'occhio ! - Copyright ORBIFLY Dicembre 2007 - Disclaimer

ORBIFLY MET'MAP TEAM :

Programmazione e sviluppo : Alexandra Zaïnal
Concezione : Baudouin d'Aumeries
Aiuto per la programmazione : Marc-Olivier Méhu
Supporto tecnico e logistico : Manuel Goepfert
Aiuto per la traduzione : Arnaldo La Scala

Contatto : metmap@orbifly.com




FONTI E CREDITI :

   NOAA